sensor_id;sensor_type;location;lat;lon;timestamp;pressure;altitude;pressure_sealevel;temperature;humidity
53041;BME280;39326;42.650;23.248;2023-02-13T00:02:15;94177.50;;;-1.49;81.07
53041;BME280;39326;42.650;23.248;2023-02-13T00:04:40;94172.56;;;-1.50;81.16
53041;BME280;39326;42.650;23.248;2023-02-13T00:07:09;94168.88;;;-1.44;81.05
53041;BME280;39326;42.650;23.248;2023-02-13T00:09:36;94169.34;;;-1.32;79.79
53041;BME280;39326;42.650;23.248;2023-02-13T00:12:03;94174.28;;;-1.26;79.16
53041;BME280;39326;42.650;23.248;2023-02-13T00:14:30;94179.78;;;-1.17;78.84
53041;BME280;39326;42.650;23.248;2023-02-13T00:16:55;94168.50;;;-1.17;78.64
53041;BME280;39326;42.650;23.248;2023-02-13T00:19:21;94176.13;;;-1.21;78.46
53041;BME280;39326;42.650;23.248;2023-02-13T00:21:47;94174.81;;;-1.23;78.29
53041;BME280;39326;42.650;23.248;2023-02-13T00:24:13;94175.63;;;-1.28;78.48
53041;BME280;39326;42.650;23.248;2023-02-13T00:26:39;94178.53;;;-1.35;78.74
53041;BME280;39326;42.650;23.248;2023-02-13T00:29:05;94170.69;;;-1.35;79.00
53041;BME280;39326;42.650;23.248;2023-02-13T00:31:31;94173.03;;;-1.38;78.57
53041;BME280;39326;42.650;23.248;2023-02-13T00:33:57;94177.75;;;-1.40;78.86
53041;BME280;39326;42.650;23.248;2023-02-13T00:36:23;94170.69;;;-1.35;77.98
53041;BME280;39326;42.650;23.248;2023-02-13T00:38:49;94175.94;;;-1.40;78.73
53041;BME280;39326;42.650;23.248;2023-02-13T00:41:15;94176.44;;;-1.43;78.62
53041;BME280;39326;42.650;23.248;2023-02-13T00:43:42;94181.16;;;-1.35;78.38
53041;BME280;39326;42.650;23.248;2023-02-13T00:46:08;94180.09;;;-1.39;78.38
53041;BME280;39326;42.650;23.248;2023-02-13T00:48:34;94177.75;;;-1.35;78.23
53041;BME280;39326;42.650;23.248;2023-02-13T00:51:01;94187.66;;;-1.32;77.34
53041;BME280;39326;42.650;23.248;2023-02-13T00:53:28;94187.41;;;-1.31;77.48
53041;BME280;39326;42.650;23.248;2023-02-13T00:55:54;94184.78;;;-1.31;77.67
53041;BME280;39326;42.650;23.248;2023-02-13T00:58:20;94196.84;;;-1.40;78.03
53041;BME280;39326;42.650;23.248;2023-02-13T01:00:46;94195.78;;;-1.34;78.08
53041;BME280;39326;42.650;23.248;2023-02-13T01:03:15;94191.84;;;-1.31;77.88
53041;BME280;39326;42.650;23.248;2023-02-13T01:05:42;94199.72;;;-1.36;77.63
53041;BME280;39326;42.650;23.248;2023-02-13T01:08:09;94201.81;;;-1.43;78.60
53041;BME280;39326;42.650;23.248;2023-02-13T01:10:37;94194.50;;;-1.41;78.38
53041;BME280;39326;42.650;23.248;2023-02-13T01:13:02;94193.44;;;-1.35;77.98
53041;BME280;39326;42.650;23.248;2023-02-13T01:15:28;94191.34;;;-1.33;78.21
53041;BME280;39326;42.650;23.248;2023-02-13T01:17:54;94191.34;;;-1.38;78.16
53041;BME280;39326;42.650;23.248;2023-02-13T01:20:22;94192.69;;;-1.41;78.78
53041;BME280;39326;42.650;23.248;2023-02-13T01:22:48;94195.28;;;-1.36;77.88
53041;BME280;39326;42.650;23.248;2023-02-13T01:25:15;94190.59;;;-1.49;79.17
53041;BME280;39326;42.650;23.248;2023-02-13T01:27:40;94192.47;;;-1.60;79.55
53041;BME280;39326;42.650;23.248;2023-02-13T01:30:07;94194.53;;;-1.46;79.40
53041;BME280;39326;42.650;23.248;2023-02-13T01:32:36;94192.72;;;-1.56;79.79
53041;BME280;39326;42.650;23.248;2023-02-13T01:35:03;94196.66;;;-1.69;80.27
53041;BME280;39326;42.650;23.248;2023-02-13T01:37:29;94198.50;;;-1.69;80.68
53041;BME280;39326;42.650;23.248;2023-02-13T01:39:54;94199.81;;;-1.77;82.20
53041;BME280;39326;42.650;23.248;2023-02-13T01:42:25;94203.72;;;-1.74;81.90
53041;BME280;39326;42.650;23.248;2023-02-13T01:45:03;94213.41;;;-1.75;82.77
53041;BME280;39326;42.650;23.248;2023-02-13T01:50:03;94204.28;;;-1.83;83.27
53041;BME280;39326;42.650;23.248;2023-02-13T01:52:31;94211.34;;;-1.93;83.48
53041;BME280;39326;42.650;23.248;2023-02-13T01:54:57;94207.16;;;-1.94;83.25
53041;BME280;39326;42.650;23.248;2023-02-13T01:57:24;94206.91;;;-2.03;84.28
53041;BME280;39326;42.650;23.248;2023-02-13T01:59:59;94214.72;;;-1.93;83.64
53041;BME280;39326;42.650;23.248;2023-02-13T02:02:27;94216.84;;;-2.05;84.78
53041;BME280;39326;42.650;23.248;2023-02-13T02:04:54;94220.50;;;-1.86;84.20
53041;BME280;39326;42.650;23.248;2023-02-13T02:07:25;94212.34;;;-1.74;83.27
53041;BME280;39326;42.650;23.248;2023-02-13T02:09:54;94213.16;;;-1.78;82.97
53041;BME280;39326;42.650;23.248;2023-02-13T02:12:28;94219.97;;;-1.77;83.45
53041;BME280;39326;42.650;23.248;2023-02-13T02:14:57;94216.56;;;-1.73;82.98
53041;BME280;39326;42.650;23.248;2023-02-13T02:17:25;94210.00;;;-1.65;82.48
53041;BME280;39326;42.650;23.248;2023-02-13T02:20:07;94212.06;;;-1.62;82.79
53041;BME280;39326;42.650;23.248;2023-02-13T02:23:25;94214.44;;;-1.61;82.69
53041;BME280;39326;42.650;23.248;2023-02-13T02:32:11;94216.56;;;-1.73;83.42
53041;BME280;39326;42.650;23.248;2023-02-13T02:43:24;94210.81;;;-1.85;83.10
53041;BME280;39326;42.650;23.248;2023-02-13T02:46:05;94214.72;;;-1.88;83.08
53041;BME280;39326;42.650;23.248;2023-02-13T02:54:05;94230.69;;;-2.04;84.14
53041;BME280;39326;42.650;23.248;2023-02-13T02:56:54;94231.22;;;-1.92;83.45
53041;BME280;39326;42.650;23.248;2023-02-13T02:59:24;94228.84;;;-1.94;83.64
53041;BME280;39326;42.650;23.248;2023-02-13T03:02:12;94238.78;;;-1.81;82.14
53041;BME280;39326;42.650;23.248;2023-02-13T03:04:58;94231.44;;;-1.68;82.19
53041;BME280;39326;42.650;23.248;2023-02-13T03:07:44;94241.13;;;-1.69;81.86
53041;BME280;39326;42.650;23.248;2023-02-13T03:10:15;94233.28;;;-1.74;81.61
53041;BME280;39326;42.650;23.248;2023-02-13T03:13:05;94229.38;;;-1.82;82.08
53041;BME280;39326;42.650;23.248;2023-02-13T03:16:01;94231.72;;;-1.85;82.22
53041;BME280;39326;42.650;23.248;2023-02-13T03:18:49;94230.94;;;-1.75;82.02
53041;BME280;39326;42.650;23.248;2023-02-13T03:21:46;94227.81;;;-1.88;83.45
53041;BME280;39326;42.650;23.248;2023-02-13T03:30:24;94236.72;;;-1.99;84.45
53041;BME280;39326;42.650;23.248;2023-02-13T03:35:34;94235.66;;;-1.98;84.78
53041;BME280;39326;42.650;23.248;2023-02-13T03:41:14;94234.31;;;-1.70;83.18
53041;BME280;39326;42.650;23.248;2023-02-13T03:46:26;94241.34;;;-1.55;82.13
53041;BME280;39326;42.650;23.248;2023-02-13T03:48:55;94237.16;;;-1.56;81.88
53041;BME280;39326;42.650;23.248;2023-02-13T03:51:44;94226.47;;;-1.70;82.84
53041;BME280;39326;42.650;23.248;2023-02-13T03:56:42;94233.56;;;-1.96;84.64
53041;BME280;39326;42.650;23.248;2023-02-13T03:59:31;94229.34;;;-1.87;83.83
53041;BME280;39326;42.650;23.248;2023-02-13T04:02:11;94229.63;;;-1.73;83.00
53041;BME280;39326;42.650;23.248;2023-02-13T04:04:53;94225.47;;;-1.79;83.24
53041;BME280;39326;42.650;23.248;2023-02-13T04:07:24;94226.97;;;-1.68;82.04
53041;BME280;39326;42.650;23.248;2023-02-13T04:10:02;94229.34;;;-1.71;82.63
53041;BME280;39326;42.650;23.248;2023-02-13T04:12:51;94239.81;;;-1.66;82.12
53041;BME280;39326;42.650;23.248;2023-02-13T04:15:23;94232.25;;;-1.88;83.55
53041;BME280;39326;42.650;23.248;2023-02-13T04:18:10;94243.50;;;-1.83;83.26
53041;BME280;39326;42.650;23.248;2023-02-13T04:20:38;94240.88;;;-1.67;81.98
53041;BME280;39326;42.650;23.248;2023-02-13T04:23:06;94244.00;;;-1.70;82.33
53041;BME280;39326;42.650;23.248;2023-02-13T04:25:33;94247.41;;;-1.70;82.35
53041;BME280;39326;42.650;23.248;2023-02-13T04:28:00;94248.19;;;-1.74;82.35
53041;BME280;39326;42.650;23.248;2023-02-13T04:30:26;94242.94;;;-1.74;82.52
53041;BME280;39326;42.650;23.248;2023-02-13T04:32:51;94243.72;;;-1.74;82.74
53041;BME280;39326;42.650;23.248;2023-02-13T04:35:17;94247.94;;;-1.73;82.05
53041;BME280;39326;42.650;23.248;2023-02-13T04:37:43;94236.44;;;-1.82;81.86
53041;BME280;39326;42.650;23.248;2023-02-13T04:40:09;94233.53;;;-1.75;81.28
53041;BME280;39326;42.650;23.248;2023-02-13T04:42:35;94230.69;;;-1.84;82.13
53041;BME280;39326;42.650;23.248;2023-02-13T04:45:01;94225.47;;;-1.79;80.52
53041;BME280;39326;42.650;23.248;2023-02-13T04:47:27;94225.19;;;-1.93;81.14
53041;BME280;39326;42.650;23.248;2023-02-13T04:49:52;94234.06;;;-1.94;82.31
53041;BME280;39326;42.650;23.248;2023-02-13T04:52:19;94225.72;;;-2.01;82.71
53041;BME280;39326;42.650;23.248;2023-02-13T04:54:45;94229.91;;;-1.95;82.16
53041;BME280;39326;42.650;23.248;2023-02-13T04:57:11;94230.69;;;-2.10;83.56
53041;BME280;39326;42.650;23.248;2023-02-13T04:59:37;94244.56;;;-1.99;82.19
53041;BME280;39326;42.650;23.248;2023-02-13T05:02:03;94244.81;;;-1.95;81.99
53041;BME280;39326;42.650;23.248;2023-02-13T05:04:28;94244.81;;;-1.95;81.88
53041;BME280;39326;42.650;23.248;2023-02-13T05:06:54;94255.00;;;-1.84;81.86
53041;BME280;39326;42.650;23.248;2023-02-13T05:09:20;94260.72;;;-1.82;80.83
53041;BME280;39326;42.650;23.248;2023-02-13T05:11:46;94254.44;;;-1.81;81.39
53041;BME280;39326;42.650;23.248;2023-02-13T05:14:12;94260.72;;;-1.82;81.45
53041;BME280;39326;42.650;23.248;2023-02-13T05:16:38;94262.31;;;-1.70;80.90
53041;BME280;39326;42.650;23.248;2023-02-13T05:19:04;94257.84;;;-1.70;80.77
53041;BME280;39326;42.650;23.248;2023-02-13T05:21:30;94254.97;;;-1.68;80.16
53041;BME280;39326;42.650;23.248;2023-02-13T05:24:14;94260.72;;;-1.82;81.07
53041;BME280;39326;42.650;23.248;2023-02-13T05:26:39;94263.88;;;-1.69;80.66
53041;BME280;39326;42.650;23.248;2023-02-13T05:29:05;94266.47;;;-1.59;80.38
53041;BME280;39326;42.650;23.248;2023-02-13T05:34:15;94266.22;;;-1.63;79.83
53041;BME280;39326;42.650;23.248;2023-02-13T05:36:41;94270.66;;;-1.58;80.17
53041;BME280;39326;42.650;23.248;2023-02-13T05:39:07;94268.03;;;-1.53;79.81
53041;BME280;39326;42.650;23.248;2023-02-13T05:41:33;94263.88;;;-1.85;81.49
53041;BME280;39326;42.650;23.248;2023-02-13T05:43:59;94269.91;;;-1.84;82.69
53041;BME280;39326;42.650;23.248;2023-02-13T05:46:24;94278.00;;;-1.86;83.06
53041;BME280;39326;42.650;23.248;2023-02-13T05:48:51;94276.97;;;-1.90;83.25
53041;BME280;39326;42.650;23.248;2023-02-13T05:51:18;94268.59;;;-1.76;82.93
53041;BME280;39326;42.650;23.248;2023-02-13T05:53:44;94272.25;;;-1.67;82.48
53041;BME280;39326;42.650;23.248;2023-02-13T05:56:10;94264.13;;;-1.66;81.79
53041;BME280;39326;42.650;23.248;2023-02-13T05:58:36;94284.28;;;-1.71;82.95
53041;BME280;39326;42.650;23.248;2023-02-13T06:01:02;94285.56;;;-1.54;81.67
53041;BME280;39326;42.650;23.248;2023-02-13T06:03:29;94283.47;;;-1.57;81.78
53041;BME280;39326;42.650;23.248;2023-02-13T06:05:56;94284.25;;;-1.41;81.17
53041;BME280;39326;42.650;23.248;2023-02-13T06:08:22;94293.88;;;-1.26;80.38
53041;BME280;39326;42.650;23.248;2023-02-13T06:10:48;94283.41;;;-1.26;80.04
53041;BME280;39326;42.650;23.248;2023-02-13T06:13:15;94298.28;;;-1.11;79.63
53041;BME280;39326;42.650;23.248;2023-02-13T06:15:41;94285.81;;;-1.30;79.10
53041;BME280;39326;42.650;23.248;2023-02-13T06:18:07;94286.81;;;-1.20;79.24
53041;BME280;39326;42.650;23.248;2023-02-13T06:20:33;94290.19;;;-1.15;78.94
53041;BME280;39326;42.650;23.248;2023-02-13T06:22:59;94299.34;;;-1.17;78.74
53041;BME280;39326;42.650;23.248;2023-02-13T06:25:24;94296.50;;;-1.16;79.50
53041;BME280;39326;42.650;23.248;2023-02-13T06:27:50;94310.91;;;-1.29;79.50
53041;BME280;39326;42.650;23.248;2023-02-13T06:30:16;94292.84;;;-1.25;80.09
53041;BME280;39326;42.650;23.248;2023-02-13T06:32:43;94307.78;;;-1.41;81.37
53041;BME280;39326;42.650;23.248;2023-02-13T06:35:10;94308.53;;;-1.30;80.65
53041;BME280;39326;42.650;23.248;2023-02-13T06:37:36;94313.53;;;-1.29;80.81
53041;BME280;39326;42.650;23.248;2023-02-13T06:40:02;94308.81;;;-1.27;80.46
53041;BME280;39326;42.650;23.248;2023-02-13T06:42:28;94307.97;;;-1.12;79.47
53041;BME280;39326;42.650;23.248;2023-02-13T06:44:54;94298.34;;;-1.21;79.33
53041;BME280;39326;42.650;23.248;2023-02-13T06:47:19;94310.91;;;-1.34;80.48
53041;BME280;39326;42.650;23.248;2023-02-13T06:49:45;94307.25;;;-1.33;80.92
53041;BME280;39326;42.650;23.248;2023-02-13T06:52:11;94296.28;;;-1.50;80.93
53041;BME280;39326;42.650;23.248;2023-02-13T06:54:36;94312.50;;;-1.48;81.75
53041;BME280;39326;42.650;23.248;2023-02-13T06:57:02;94311.97;;;-1.40;81.97
53041;BME280;39326;42.650;23.248;2023-02-13T06:59:28;94309.13;;;-1.54;82.42
53041;BME280;39326;42.650;23.248;2023-02-13T07:01:53;94299.16;;;-1.46;81.82
53041;BME280;39326;42.650;23.248;2023-02-13T07:04:19;94306.19;;;-1.37;81.43
53041;BME280;39326;42.650;23.248;2023-02-13T07:06:45;94310.63;;;-1.22;80.69
53041;BME280;39326;42.650;23.248;2023-02-13T07:09:10;94313.22;;;-1.12;80.48
53041;BME280;39326;42.650;23.248;2023-02-13T07:11:38;94305.63;;;-1.03;79.67
53041;BME280;39326;42.650;23.248;2023-02-13T07:14:06;94301.66;;;-0.95;79.00
53041;BME280;39326;42.650;23.248;2023-02-13T07:16:32;94303.44;;;-0.86;78.93
53041;BME280;39326;42.650;23.248;2023-02-13T07:18:58;94308.69;;;-0.81;78.88
53041;BME280;39326;42.650;23.248;2023-02-13T07:21:24;94301.66;;;-0.85;78.58
53041;BME280;39326;42.650;23.248;2023-02-13T07:23:50;94314.03;;;-1.16;80.25
53041;BME280;39326;42.650;23.248;2023-02-13T07:26:16;94318.72;;;-1.13;79.52
53041;BME280;39326;42.650;23.248;2023-02-13T07:28:42;94317.66;;;-1.17;79.53
53041;BME280;39326;42.650;23.248;2023-02-13T07:31:07;94323.19;;;-1.24;79.81
53041;BME280;39326;42.650;23.248;2023-02-13T07:33:33;94318.50;;;-1.22;80.03
53041;BME280;39326;42.650;23.248;2023-02-13T07:35:59;94318.22;;;-1.10;79.06
53041;BME280;39326;42.650;23.248;2023-02-13T07:38:30;94312.72;;;-1.24;79.72
53041;BME280;39326;42.650;23.248;2023-02-13T07:41:00;94311.41;;;-1.27;79.89
53041;BME280;39326;42.650;23.248;2023-02-13T07:43:26;94323.44;;;-1.10;79.70
53041;BME280;39326;42.650;23.248;2023-02-13T07:45:51;94318.66;;;-0.93;79.07
53041;BME280;39326;42.650;23.248;2023-02-13T07:48:23;94325.16;;;-0.75;77.92
53041;BME280;39326;42.650;23.248;2023-02-13T07:50:51;94316.47;;;-0.60;77.55
53041;BME280;39326;42.650;23.248;2023-02-13T07:53:17;94313.00;;;-0.46;76.19
53041;BME280;39326;42.650;23.248;2023-02-13T07:55:43;94305.38;;;-0.42;76.38
53041;BME280;39326;42.650;23.248;2023-02-13T07:58:08;94319.81;;;-0.45;76.74
53041;BME280;39326;42.650;23.248;2023-02-13T08:00:34;94317.94;;;-0.39;76.14
53041;BME280;39326;42.650;23.248;2023-02-13T08:03:00;94317.16;;;-0.39;76.93
53041;BME280;39326;42.650;23.248;2023-02-13T08:05:27;94305.44;;;-0.57;76.92
53041;BME280;39326;42.650;23.248;2023-02-13T08:07:52;94321.91;;;-0.47;76.68
53041;BME280;39326;42.650;23.248;2023-02-13T08:10:18;94313.97;;;-0.31;76.35
53041;BME280;39326;42.650;23.248;2023-02-13T08:13:03;94322.56;;;-0.21;75.76
53041;BME280;39326;42.650;23.248;2023-02-13T08:15:29;94324.94;;;-0.29;75.60
53041;BME280;39326;42.650;23.248;2023-02-13T08:17:55;94321.44;;;-0.54;77.02
53041;BME280;39326;42.650;23.248;2023-02-13T08:20:21;94299.94;;;-0.56;76.45
53041;BME280;39326;42.650;23.248;2023-02-13T08:22:48;94319.19;;;-0.26;75.93
53041;BME280;39326;42.650;23.248;2023-02-13T08:25:14;94304.66;;;-0.08;75.75
53041;BME280;39326;42.650;23.248;2023-02-13T08:27:40;94311.50;;;-0.12;75.50
53041;BME280;39326;42.650;23.248;2023-02-13T08:30:06;94313.75;;;0.04;74.66
53041;BME280;39326;42.650;23.248;2023-02-13T08:32:33;94310.06;;;0.11;75.10
53041;BME280;39326;42.650;23.248;2023-02-13T08:34:58;94305.66;;;0.01;74.34
53041;BME280;39326;42.650;23.248;2023-02-13T08:37:24;94308.66;;;0.23;73.60
53041;BME280;39326;42.650;23.248;2023-02-13T08:39:50;94312.91;;;0.14;73.91
53041;BME280;39326;42.650;23.248;2023-02-13T08:42:15;94310.50;;;0.23;74.07
53041;BME280;39326;42.650;23.248;2023-02-13T08:44:41;94303.88;;;-0.04;73.38
53041;BME280;39326;42.650;23.248;2023-02-13T08:47:07;94304.22;;;-0.21;74.17
53041;BME280;39326;42.650;23.248;2023-02-13T08:49:34;94313.31;;;-0.08;74.01
53041;BME280;39326;42.650;23.248;2023-02-13T08:52:00;94318.59;;;-0.13;74.60
53041;BME280;39326;42.650;23.248;2023-02-13T08:54:27;94316.34;;;0.09;74.11
53041;BME280;39326;42.650;23.248;2023-02-13T08:56:53;94319.28;;;0.37;72.51
53041;BME280;39326;42.650;23.248;2023-02-13T08:59:19;94317.16;;;0.39;72.21
53041;BME280;39326;42.650;23.248;2023-02-13T09:01:45;94317.38;;;0.48;72.24
53041;BME280;39326;42.650;23.248;2023-02-13T09:04:11;94311.78;;;0.59;72.18
53041;BME280;39326;42.650;23.248;2023-02-13T09:06:40;94312.34;;;0.51;72.13
53041;BME280;39326;42.650;23.248;2023-02-13T09:09:06;94309.38;;;0.63;71.93
53041;BME280;39326;42.650;23.248;2023-02-13T09:11:31;94305.56;;;0.79;71.00
53041;BME280;39326;42.650;23.248;2023-02-13T09:13:57;94305.97;;;0.92;70.30
53041;BME280;39326;42.650;23.248;2023-02-13T09:16:22;94312.88;;;0.82;70.56
53041;BME280;39326;42.650;23.248;2023-02-13T09:18:49;94317.53;;;0.61;71.15
53041;BME280;39326;42.650;23.248;2023-02-13T09:21:16;94315.28;;;0.79;70.59
53041;BME280;39326;42.650;23.248;2023-02-13T09:23:41;94305.50;;;1.08;70.15
53041;BME280;39326;42.650;23.248;2023-02-13T09:26:11;94303.00;;;1.22;69.98
53041;BME280;39326;42.650;23.248;2023-02-13T09:28:37;94305.16;;;1.15;69.92
53041;BME280;39326;42.650;23.248;2023-02-13T09:31:07;94301.66;;;1.49;68.70
53041;BME280;39326;42.650;23.248;2023-02-13T09:33:34;94303.19;;;1.92;68.66
53041;BME280;39326;42.650;23.248;2023-02-13T09:36:04;94294.06;;;2.22;68.16
53041;BME280;39326;42.650;23.248;2023-02-13T09:38:30;94291.88;;;2.11;66.71
53041;BME280;39326;42.650;23.248;2023-02-13T09:41:00;94285.44;;;2.36;67.05
53041;BME280;39326;42.650;23.248;2023-02-13T09:43:34;94283.91;;;2.48;65.45
53041;BME280;39326;42.650;23.248;2023-02-13T09:46:09;94289.41;;;2.33;65.24
53041;BME280;39326;42.650;23.248;2023-02-13T09:48:38;94285.00;;;2.47;65.99
53041;BME280;39326;42.650;23.248;2023-02-13T09:51:05;94290.94;;;2.99;65.51
53041;BME280;39326;42.650;23.248;2023-02-13T09:53:30;94283.59;;;3.10;64.88
53041;BME280;39326;42.650;23.248;2023-02-13T09:56:12;94278.38;;;3.24;61.73
53041;BME280;39326;42.650;23.248;2023-02-13T10:01:33;94273.84;;;3.38;62.53
53041;BME280;39326;42.650;23.248;2023-02-13T10:07:12;94262.97;;;3.81;60.56
53041;BME280;39326;42.650;23.248;2023-02-13T10:10:02;94255.16;;;3.98;59.69
53041;BME280;39326;42.650;23.248;2023-02-13T10:15:42;94249.41;;;3.96;60.82
53041;BME280;39326;42.650;23.248;2023-02-13T10:18:24;94241.06;;;3.80;60.10
53041;BME280;39326;42.650;23.248;2023-02-13T10:20:58;94243.81;;;4.34;60.04
53041;BME280;39326;42.650;23.248;2023-02-13T10:24:11;94230.59;;;4.56;57.84
53041;BME280;39326;42.650;23.248;2023-02-13T10:26:40;94226.03;;;4.79;58.59
53041;BME280;39326;42.650;23.248;2023-02-13T10:29:13;94231.59;;;5.00;57.44
53041;BME280;39326;42.650;23.248;2023-02-13T10:32:01;94216.44;;;5.49;57.30
53041;BME280;39326;42.650;23.248;2023-02-13T10:34:32;94219.00;;;5.63;57.19
53041;BME280;39326;42.650;23.248;2023-02-13T10:36:59;94215.13;;;5.95;56.09
53041;BME280;39326;42.650;23.248;2023-02-13T10:39:29;94212.13;;;6.05;54.89
53041;BME280;39326;42.650;23.248;2023-02-13T10:55:28;94193.09;;;6.93;51.99
53041;BME280;39326;42.650;23.248;2023-02-13T10:58:06;94197.31;;;6.39;51.50
53041;BME280;39326;42.650;23.248;2023-02-13T11:03:23;94186.59;;;5.92;53.06
53041;BME280;39326;42.650;23.248;2023-02-13T11:05:50;94180.38;;;6.14;52.94
53041;BME280;39326;42.650;23.248;2023-02-13T11:08:21;94193.84;;;6.64;52.32
53041;BME280;39326;42.650;23.248;2023-02-13T11:10:48;94176.69;;;6.62;51.68
53041;BME280;39326;42.650;23.248;2023-02-13T11:13:22;94190.53;;;6.76;49.43
53041;BME280;39326;42.650;23.248;2023-02-13T11:16:01;94183.69;;;6.75;48.79
53041;BME280;39326;42.650;23.248;2023-02-13T11:18:30;94183.31;;;6.85;49.98
53041;BME280;39326;42.650;23.248;2023-02-13T11:21:19;94166.19;;;7.12;48.57
53041;BME280;39326;42.650;23.248;2023-02-13T11:23:50;94175.78;;;6.96;48.19
53041;BME280;39326;42.650;23.248;2023-02-13T11:28:54;94162.16;;;6.76;48.79
53041;BME280;39326;42.650;23.248;2023-02-13T11:31:25;94154.31;;;6.80;48.96
53041;BME280;39326;42.650;23.248;2023-02-13T11:33:51;94158.09;;;7.08;49.04
53041;BME280;39326;42.650;23.248;2023-02-13T11:36:26;94143.53;;;6.94;47.84
53041;BME280;39326;42.650;23.248;2023-02-13T11:41:24;94134.13;;;6.96;49.23
53041;BME280;39326;42.650;23.248;2023-02-13T11:46:30;94134.66;;;7.40;47.54
53041;BME280;39326;42.650;23.248;2023-02-13T11:49:16;94133.81;;;7.27;47.34
53041;BME280;39326;42.650;23.248;2023-02-13T11:51:49;94117.03;;;7.56;46.86
53041;BME280;39326;42.650;23.248;2023-02-13T11:59:45;94106.06;;;6.95;47.71
53041;BME280;39326;42.650;23.248;2023-02-13T12:02:18;94104.16;;;6.75;47.87
53041;BME280;39326;42.650;23.248;2023-02-13T12:04:44;94107.28;;;6.98;48.52
53041;BME280;39326;42.650;23.248;2023-02-13T12:07:30;94093.03;;;6.81;48.04
53041;BME280;39326;42.650;23.248;2023-02-13T12:10:11;94090.16;;;7.16;47.27
53041;BME280;39326;42.650;23.248;2023-02-13T12:12:54;94087.63;;;7.61;46.65
53041;BME280;39326;42.650;23.248;2023-02-13T12:15:24;94086.81;;;7.49;46.37
53041;BME280;39326;42.650;23.248;2023-02-13T12:20:54;94088.34;;;8.04;45.74
53041;BME280;39326;42.650;23.248;2023-02-13T12:24:02;94091.78;;;7.29;45.17
53041;BME280;39326;42.650;23.248;2023-02-13T12:26:39;94090.16;;;6.95;47.05
53041;BME280;39326;42.650;23.248;2023-02-13T12:31:40;94088.69;;;6.77;46.89
53041;BME280;39326;42.650;23.248;2023-02-13T12:45:47;94069.44;;;6.59;46.26
53041;BME280;39326;42.650;23.248;2023-02-13T12:56:56;94065.56;;;6.01;47.25
53041;BME280;39326;42.650;23.248;2023-02-13T12:59:29;94058.00;;;5.73;47.93
53041;BME280;39326;42.650;23.248;2023-02-13T13:04:42;94060.19;;;5.71;47.92
53041;BME280;39326;42.650;23.248;2023-02-13T13:07:25;94056.44;;;5.81;48.07
53041;BME280;39326;42.650;23.248;2023-02-13T13:14:54;94048.75;;;6.82;45.80
53041;BME280;39326;42.650;23.248;2023-02-13T13:28:38;94034.50;;;6.87;44.81
53041;BME280;39326;42.650;23.248;2023-02-13T13:31:05;94039.22;;;6.81;45.98
53041;BME280;39326;42.650;23.248;2023-02-13T13:33:32;94032.16;;;6.64;45.92
53041;BME280;39326;42.650;23.248;2023-02-13T13:36:18;94034.66;;;6.22;46.51
53041;BME280;39326;42.650;23.248;2023-02-13T13:42:15;94034.91;;;5.91;47.48
53041;BME280;39326;42.650;23.248;2023-02-13T13:50:03;94025.19;;;5.57;48.39
53041;BME280;39326;42.650;23.248;2023-02-13T13:52:33;94028.63;;;5.23;48.53
53041;BME280;39326;42.650;23.248;2023-02-13T13:55:00;94022.28;;;5.24;48.71
53041;BME280;39326;42.650;23.248;2023-02-13T14:00:23;94023.97;;;4.94;49.98
53041;BME280;39326;42.650;23.248;2023-02-13T14:05:32;94016.31;;;4.66;50.50
53041;BME280;39326;42.650;23.248;2023-02-13T14:08:00;94028.56;;;4.54;50.94
53041;BME280;39326;42.650;23.248;2023-02-13T14:23:46;94007.06;;;4.29;52.05
53041;BME280;39326;42.650;23.248;2023-02-13T14:28:55;94000.19;;;3.80;53.50
53041;BME280;39326;42.650;23.248;2023-02-13T14:31:28;94003.38;;;3.99;52.72
53041;BME280;39326;42.650;23.248;2023-02-13T14:34:02;94001.19;;;3.93;53.43
53041;BME280;39326;42.650;23.248;2023-02-13T14:36:32;93995.72;;;3.89;52.83
53041;BME280;39326;42.650;23.248;2023-02-13T14:39:01;94004.09;;;3.91;53.50
53041;BME280;39326;42.650;23.248;2023-02-13T14:44:19;93996.72;;;3.71;53.90
53041;BME280;39326;42.650;23.248;2023-02-13T14:46:47;94007.22;;;3.62;53.50
53041;BME280;39326;42.650;23.248;2023-02-13T14:51:49;94002.72;;;3.31;55.05
53041;BME280;39326;42.650;23.248;2023-02-13T14:54:26;94002.81;;;3.49;54.25
53041;BME280;39326;42.650;23.248;2023-02-13T14:57:12;94003.06;;;3.39;55.24
53041;BME280;39326;42.650;23.248;2023-02-13T14:59:44;94000.03;;;3.54;54.47
53041;BME280;39326;42.650;23.248;2023-02-13T15:02:32;93995.22;;;3.25;55.59
53041;BME280;39326;42.650;23.248;2023-02-13T15:05:14;94005.09;;;3.42;54.35
53041;BME280;39326;42.650;23.248;2023-02-13T15:07:47;93999.59;;;3.29;55.37
53041;BME280;39326;42.650;23.248;2023-02-13T15:13:00;93995.22;;;3.25;54.57
53041;BME280;39326;42.650;23.248;2023-02-13T15:15:31;94000.47;;;3.47;54.07
53041;BME280;39326;42.650;23.248;2023-02-13T15:18:00;93995.19;;;3.47;53.43
53041;BME280;39326;42.650;23.248;2023-02-13T15:20:29;94002.88;;;3.35;54.45
53041;BME280;39326;42.650;23.248;2023-02-13T15:22:57;93997.38;;;3.23;54.23
53041;BME280;39326;42.650;23.248;2023-02-13T15:25:30;94008.41;;;3.25;54.37
53041;BME280;39326;42.650;23.248;2023-02-13T15:27:58;94010.25;;;3.24;54.70
53041;BME280;39326;42.650;23.248;2023-02-13T15:30:37;94009.41;;;3.15;55.03
53041;BME280;39326;42.650;23.248;2023-02-13T15:33:18;94005.16;;;3.05;55.50
53041;BME280;39326;42.650;23.248;2023-02-13T15:35:44;94009.94;;;3.03;54.20
53041;BME280;39326;42.650;23.248;2023-02-13T15:38:22;94004.50;;;3.00;55.41
53041;BME280;39326;42.650;23.248;2023-02-13T15:40:49;94003.00;;;2.85;55.38
53041;BME280;39326;42.650;23.248;2023-02-13T15:43:27;94004.56;;;2.72;56.44
53041;BME280;39326;42.650;23.248;2023-02-13T15:45:58;94017.25;;;2.70;56.33
53041;BME280;39326;42.650;23.248;2023-02-13T15:48:24;94015.50;;;2.66;55.89
53041;BME280;39326;42.650;23.248;2023-02-13T15:50:49;94028.19;;;2.64;56.43
53041;BME280;39326;42.650;23.248;2023-02-13T15:53:17;94024.72;;;2.55;56.00
53041;BME280;39326;42.650;23.248;2023-02-13T15:55:58;94024.34;;;2.47;56.91